Time;durP1;ratioP1;P1;durP2;ratioP2;P2;SDS_P1;SDS_P2;PMS_P1;PMS_P2;Temp;Humidity;BMP_temperature;BMP_pressure;BME280_temperature;BME280_humidity;BME280_pressure;Samples;Min_cycle;Max_cycle;Signal;HPM_P1;HPM_P2
2023/01/17 00:01:17;;;;;;;0.50;0.50;;;;;;;2.95;100.00;93782.47;5046208;28;20215;-75
2023/01/17 00:12:00;;;;;;;0.53;0.53;;;;;;;2.82;100.00;93782.78;5042800;28;20229;-75
2023/01/17 00:14:28;;;;;;;0.47;0.47;;;;;;;2.84;100.00;93786.03;5044287;28;20293;-75
2023/01/17 00:16:55;;;;;;;0.50;0.50;;;;;;;2.75;100.00;93790.16;5047911;28;20264;-75
2023/01/17 01:34:45;;;;;;;0.60;0.60;;;;;;;2.28;100.00;93758.56;5044939;28;20256;-75
2023/01/17 01:37:12;;;;;;;0.40;0.40;;;;;;;2.31;100.00;93762.56;5040164;28;20212;-75
2023/01/17 01:39:39;;;;;;;1.03;0.57;;;;;;;2.28;100.00;93766.53;5046253;28;20220;-75
2023/01/17 01:42:14;;;;;;;0.50;0.50;;;;;;;2.26;100.00;93759.84;5041295;28;20271;-75
2023/01/17 01:44:44;;;;;;;0.90;0.70;;;;;;;2.10;100.00;93745.50;5043796;28;20212;-75
2023/01/17 01:47:14;;;;;;;0.43;0.43;;;;;;;2.00;100.00;93749.81;5041680;28;20260;-75
2023/01/17 01:49:42;;;;;;;0.60;0.60;;;;;;;1.97;100.00;93748.44;5037036;28;20215;-75
2023/01/17 01:52:11;;;;;;;0.83;0.70;;;;;;;1.98;100.00;93752.72;5043365;28;20210;-75
2023/01/17 01:54:43;;;;;;;0.50;0.50;;;;;;;2.01;100.00;93752.25;5046561;28;20301;-75
2023/01/17 01:57:16;;;;;;;1.87;0.60;;;;;;;1.92;100.00;93745.72;5042968;28;20309;-75
2023/01/17 01:59:48;;;;;;;0.60;0.60;;;;;;;1.82;100.00;93735.69;5043553;28;20234;-75
2023/01/17 02:02:16;;;;;;;1.03;0.70;;;;;;;1.76;100.00;93722.56;5039817;28;20218;-75
2023/01/17 02:04:44;;;;;;;0.97;0.70;;;;;;;1.78;100.00;93721.28;5036720;28;20213;-75
2023/01/17 02:07:15;;;;;;;0.60;0.60;;;;;;;1.67;100.00;93714.16;5043640;28;20202;-75
2023/01/17 02:09:42;;;;;;;0.70;0.70;;;;;;;1.64;100.00;93714.63;5042581;28;20205;-75
2023/01/17 02:12:10;;;;;;;0.70;0.70;;;;;;;1.73;100.00;93718.50;5045670;28;20224;-75
2023/01/17 02:14:38;;;;;;;0.70;0.70;;;;;;;1.70;100.00;93716.31;5035570;28;20225;-75
2023/01/17 02:17:16;;;;;;;0.80;0.60;;;;;;;1.66;100.00;93711.72;5038593;28;20210;-75
2023/01/17 02:20:28;;;;;;;0.60;0.60;;;;;;;1.72;100.00;93716.09;5039112;28;20321;-75
2023/01/17 02:23:22;;;;;;;0.73;0.60;;;;;;;1.74;100.00;93703.38;4962036;28;20214;-75
2023/01/17 02:26:39;;;;;;;0.50;0.50;;;;;;;1.78;100.00;93696.53;4966124;28;20244;-75
2023/01/17 02:30:05;;;;;;;0.43;0.43;;;;;;;1.88;100.00;93688.69;5037682;28;20210;-75
2023/01/17 02:33:00;;;;;;;0.67;0.67;;;;;;;2.00;100.00;93697.41;5038839;28;20198;-75
2023/01/17 02:35:34;;;;;;;0.70;0.70;;;;;;;2.05;100.00;93692.16;5036085;28;20206;-75
2023/01/17 02:38:12;;;;;;;0.63;0.60;;;;;;;2.11;100.00;93685.06;5042767;28;20251;-75
2023/01/17 02:40:44;;;;;;;1.73;0.80;;;;;;;2.08;100.00;93672.25;5036515;28;20216;-75
2023/01/17 02:43:14;;;;;;;0.50;0.50;;;;;;;2.10;100.00;93676.28;5045950;28;20202;-75
2023/01/17 02:45:42;;;;;;;0.60;0.60;;;;;;;2.20;100.00;93684.44;5043561;28;20206;-75
2023/01/17 02:48:13;;;;;;;0.60;0.60;;;;;;;2.18;100.00;93691.03;5040413;28;20281;-75
2023/01/17 02:50:57;;;;;;;0.70;0.70;;;;;;;2.13;100.00;93675.78;5041806;28;20210;-75
2023/01/17 02:53:36;;;;;;;0.50;0.50;;;;;;;2.05;100.00;93681.50;5046096;28;20206;-75
2023/01/17 02:56:15;;;;;;;0.60;0.60;;;;;;;1.96;100.00;93682.97;5040526;28;20286;-75
2023/01/17 02:59:02;;;;;;;0.70;0.70;;;;;;;1.97;100.00;93697.06;5046552;28;20223;-75
2023/01/17 03:01:37;;;;;;;0.70;0.70;;;;;;;1.89;100.00;93690.31;5044267;28;20294;-75
2023/01/17 03:04:13;;;;;;;0.50;0.50;;;;;;;1.79;100.00;93680.31;5049393;28;20229;-75
2023/01/17 03:06:44;;;;;;;1.83;1.00;;;;;;;1.78;100.00;93677.91;5039506;28;20213;-75
2023/01/17 03:09:13;;;;;;;0.60;0.60;;;;;;;1.76;100.00;93680.81;5056933;28;20292;-75
2023/01/17 03:11:40;;;;;;;0.67;0.60;;;;;;;1.72;100.00;93673.53;5044274;28;20230;-75
2023/01/17 03:14:07;;;;;;;0.80;0.80;;;;;;;1.67;100.00;93668.13;5040325;28;20201;-75
2023/01/17 03:16:34;;;;;;;1.47;0.93;;;;;;;1.62;100.00;93670.69;5041712;28;20198;-75
2023/01/17 03:19:01;;;;;;;1.30;0.80;;;;;;;1.60;100.00;93684.25;5041781;28;20190;-75
2023/01/17 03:21:30;;;;;;;0.90;0.80;;;;;;;1.60;100.00;93676.28;5043493;28;20228;-75
2023/01/17 03:23:57;;;;;;;2.10;0.90;;;;;;;1.59;100.00;93674.66;5046510;28;20303;-75
2023/01/17 03:26:24;;;;;;;1.20;1.00;;;;;;;1.63;100.00;93688.28;5045214;28;20202;-75
2023/01/17 03:28:51;;;;;;;0.77;0.70;;;;;;;1.58;100.00;93688.19;5044951;28;20217;-75
2023/01/17 03:31:19;;;;;;;0.60;0.60;;;;;;;1.59;100.00;93685.28;5047152;28;20210;-75
2023/01/17 03:33:46;;;;;;;0.70;0.60;;;;;;;1.55;100.00;93667.38;5051200;28;20202;-75
2023/01/17 03:36:13;;;;;;;0.60;0.60;;;;;;;1.55;100.00;93662.88;5046555;28;20459;-75
2023/01/17 03:38:42;;;;;;;2.23;0.80;;;;;;;1.46;100.00;93661.66;5044689;28;20224;-75
2023/01/17 03:41:09;;;;;;;0.73;0.70;;;;;;;1.34;100.00;93664.41;5047210;28;20208;-75
2023/01/17 03:43:36;;;;;;;1.30;0.90;;;;;;;1.34;100.00;93661.72;5036584;28;20206;-75
2023/01/17 03:46:04;;;;;;;0.60;0.60;;;;;;;1.29;100.00;93648.34;5045706;28;20206;-75
2023/01/17 03:48:31;;;;;;;0.70;0.70;;;;;;;1.24;100.00;93650.91;5049102;28;20203;-75
2023/01/17 03:50:58;;;;;;;0.87;0.70;;;;;;;1.24;100.00;93664.19;5044595;28;20208;-75
2023/01/17 03:53:25;;;;;;;0.90;0.63;;;;;;;1.20;100.00;93654.28;5044774;28;20214;-75
2023/01/17 03:55:53;;;;;;;0.50;0.50;;;;;;;1.22;100.00;93649.53;5045710;28;20268;-75
2023/01/17 03:58:21;;;;;;;1.30;0.83;;;;;;;1.25;100.00;93660.50;5046090;28;20246;-75
2023/01/17 04:00:48;;;;;;;2.40;0.63;;;;;;;1.20;100.00;93644.44;5045319;28;20201;-75
2023/01/17 04:03:15;;;;;;;0.70;0.70;;;;;;;1.17;100.00;93644.94;5040947;28;20223;-75
2023/01/17 04:05:41;;;;;;;1.67;1.13;;;;;;;1.10;100.00;93654.91;5041010;28;20212;-75
2023/01/17 04:08:08;;;;;;;0.93;0.80;;;;;;;1.12;100.00;93647.50;5034926;28;20214;-75
2023/01/17 04:10:35;;;;;;;1.47;0.80;;;;;;;1.17;100.00;93638.81;5036984;28;20222;-75
2023/01/17 04:13:04;;;;;;;0.80;0.80;;;;;;;1.10;100.00;93644.28;5047362;28;20221;-75
2023/01/17 04:15:32;;;;;;;1.00;0.90;;;;;;;1.04;100.00;93640.72;5039435;28;20202;-75
2023/01/17 04:17:59;;;;;;;0.77;0.77;;;;;;;1.08;100.00;93625.13;5040914;28;20209;-75
2023/01/17 04:20:32;;;;;;;1.03;0.90;;;;;;;1.07;100.00;93615.53;5030843;28;20231;-75
2023/01/17 04:22:59;;;;;;;0.70;0.70;;;;;;;1.10;100.00;93621.19;5037868;28;20230;-75
2023/01/17 04:25:28;;;;;;;0.80;0.80;;;;;;;1.05;100.00;93617.59;5043058;28;20242;-75
2023/01/17 04:27:56;;;;;;;0.90;0.90;;;;;;;1.03;100.00;93611.72;5050630;28;20211;-75
2023/01/17 04:30:24;;;;;;;0.80;0.80;;;;;;;0.99;100.00;93610.59;5039944;28;20205;-75
2023/01/17 04:32:52;;;;;;;1.10;1.00;;;;;;;0.87;100.00;93607.19;5039897;28;20219;-75
2023/01/17 04:35:19;;;;;;;1.60;1.20;;;;;;;0.89;100.00;93607.75;5034944;28;20206;-75
2023/01/17 04:37:46;;;;;;;1.00;0.90;;;;;;;0.91;100.00;93598.50;5045511;28;20206;-75
2023/01/17 04:40:14;;;;;;;1.53;1.20;;;;;;;0.86;100.00;93589.63;5041408;28;20253;-75
2023/01/17 04:42:41;;;;;;;1.60;1.10;;;;;;;0.88;100.00;93576.91;5047200;28;20229;-75
2023/01/17 04:45:08;;;;;;;1.10;1.00;;;;;;;0.86;100.00;93579.81;5035245;28;20207;-75
2023/01/17 04:47:37;;;;;;;1.40;1.00;;;;;;;0.77;100.00;93575.13;5045527;28;20252;-75
2023/01/17 04:50:07;;;;;;;0.93;0.90;;;;;;;0.72;100.00;93576.66;5047007;28;20232;-75
2023/01/17 04:52:34;;;;;;;1.07;0.90;;;;;;;0.77;100.00;93561.88;5045400;28;20206;-75
2023/01/17 04:55:02;;;;;;;1.00;0.90;;;;;;;0.80;100.00;93556.06;5046650;28;20208;-75
2023/01/17 04:57:29;;;;;;;0.90;0.90;;;;;;;0.82;100.00;93546.00;5044838;28;20289;-75
2023/01/17 04:59:56;;;;;;;1.67;1.00;;;;;;;0.81;100.00;93544.41;5047371;28;20202;-75
2023/01/17 05:02:23;;;;;;;1.10;1.00;;;;;;;0.81;100.00;93545.19;5041012;28;20307;-77
2023/01/17 05:04:51;;;;;;;1.00;0.90;;;;;;;0.82;100.00;93546.00;5048536;28;20207;-77
2023/01/17 05:07:18;;;;;;;1.40;0.90;;;;;;;0.84;100.00;93535.97;5046099;28;20229;-75
2023/01/17 05:09:46;;;;;;;1.10;0.90;;;;;;;0.86;100.00;93528.53;5048202;28;20228;-75
2023/01/17 05:12:13;;;;;;;1.00;0.90;;;;;;;0.79;100.00;93531.34;5039162;28;20214;-75
2023/01/17 05:14:40;;;;;;;2.40;1.07;;;;;;;0.70;100.00;93522.97;5041234;28;20225;-75
2023/01/17 05:17:09;;;;;;;1.83;1.40;;;;;;;0.61;100.00;93521.72;5039394;28;20312;-75
2023/01/17 05:19:37;;;;;;;6.17;3.33;;;;;;;0.63;100.00;93514.34;5037890;28;20250;-75
2023/01/17 05:22:13;;;;;;;2.23;1.90;;;;;;;0.74;100.00;93507.38;5043729;28;20221;-75
2023/01/17 05:24:41;;;;;;;1.57;1.17;;;;;;;0.76;100.00;93502.63;5038312;28;20245;-75
2023/01/17 05:27:08;;;;;;;1.20;1.00;;;;;;;0.69;100.00;93513.38;5048586;28;20245;-75
2023/01/17 05:29:35;;;;;;;1.63;1.30;;;;;;;0.69;100.00;93515.22;5042135;28;20258;-75
2023/01/17 05:32:02;;;;;;;4.33;1.90;;;;;;;0.60;100.00;93520.13;5044319;28;20197;-75
2023/01/17 05:34:29;;;;;;;2.60;1.47;;;;;;;0.59;100.00;93525.69;5041779;28;20304;-75
2023/01/17 05:36:56;;;;;;;2.60;1.90;;;;;;;0.52;100.00;93525.81;5046476;28;20195;-75
2023/01/17 05:39:25;;;;;;;2.63;1.80;;;;;;;0.54;100.00;93533.53;5046130;28;20225;-75
2023/01/17 05:41:52;;;;;;;2.83;1.80;;;;;;;0.52;100.00;93536.44;5045603;28;20216;-75
2023/01/17 05:44:19;;;;;;;3.20;1.87;;;;;;;0.52;100.00;93533.78;5041774;28;20215;-75
2023/01/17 05:46:46;;;;;;;3.70;2.50;;;;;;;0.47;100.00;93527.56;5040912;28;20204;-75
2023/01/17 05:49:13;;;;;;;4.30;2.27;;;;;;;0.45;100.00;93525.16;5047006;28;20273;-75
2023/01/17 05:51:40;;;;;;;2.77;1.83;;;;;;;0.49;100.00;93523.66;5043123;28;20212;-75
2023/01/17 05:54:07;;;;;;;2.23;1.83;;;;;;;0.48;100.00;93522.03;5046023;28;20259;-75
2023/01/17 05:56:36;;;;;;;3.47;2.13;;;;;;;0.51;100.00;93524.19;5042787;28;20199;-75
2023/01/17 05:59:03;;;;;;;4.93;3.00;;;;;;;0.57;100.00;93517.97;5044637;28;20203;-75
2023/01/17 06:01:30;;;;;;;4.10;2.57;;;;;;;0.57;100.00;93520.59;5044916;28;20198;-75
2023/01/17 06:03:56;;;;;;;4.20;2.20;;;;;;;0.55;100.00;93504.09;5044722;28;20229;-75
2023/01/17 06:06:23;;;;;;;4.30;2.60;;;;;;;0.58;100.00;93503.66;5046187;28;20203;-75
2023/01/17 06:08:51;;;;;;;3.47;2.80;;;;;;;0.64;100.00;93500.03;5047048;28;20194;-75
2023/01/17 06:11:18;;;;;;;5.10;2.83;;;;;;;0.72;100.00;93502.28;5043208;28;20223;-75
2023/01/17 06:13:48;;;;;;;2.70;2.00;;;;;;;0.81;100.00;93496.59;5043670;28;20294;-75
2023/01/17 06:16:15;;;;;;;2.40;1.87;;;;;;;0.87;100.00;93490.31;5042924;28;20209;-75
2023/01/17 06:18:42;;;;;;;2.47;1.77;;;;;;;0.90;100.00;93489.84;5035678;28;20201;-75
2023/01/17 06:21:09;;;;;;;1.77;1.37;;;;;;;0.94;100.00;93496.28;5042172;28;20308;-75
2023/01/17 06:23:36;;;;;;;1.90;1.40;;;;;;;0.97;100.00;93493.94;5041600;28;20229;-75
2023/01/17 06:26:04;;;;;;;1.77;1.20;;;;;;;0.97;100.00;93491.28;5041962;28;20231;-75
2023/01/17 06:28:34;;;;;;;2.17;1.30;;;;;;;0.99;100.00;93489.22;5045635;28;20192;-75
2023/01/17 06:31:07;;;;;;;1.80;1.40;;;;;;;1.01;100.00;93481.00;5046681;28;20201;-75
2023/01/17 06:33:34;;;;;;;1.47;1.27;;;;;;;0.96;100.00;93483.56;5046332;28;20199;-75
2023/01/17 06:36:01;;;;;;;2.67;1.27;;;;;;;0.91;100.00;93470.22;5046300;28;20225;-75
2023/01/17 06:38:29;;;;;;;2.53;1.30;;;;;;;0.96;100.00;93467.63;5045873;28;20206;-75
2023/01/17 06:40:59;;;;;;;1.40;1.10;;;;;;;0.92;100.00;93466.50;5048277;28;20294;-75
2023/01/17 06:43:31;;;;;;;1.30;1.20;;;;;;;0.98;100.00;93469.00;5051546;28;20313;-75
2023/01/17 06:45:58;;;;;;;0.97;0.90;;;;;;;0.97;100.00;93470.03;5061202;28;20196;-75
2023/01/17 06:48:26;;;;;;;1.10;0.90;;;;;;;1.01;100.00;93467.72;5046553;28;20197;-75
2023/01/17 06:50:53;;;;;;;1.10;1.00;;;;;;;1.09;100.00;93480.59;5045884;28;20216;-75
2023/01/17 06:53:20;;;;;;;3.80;1.00;;;;;;;1.10;100.00;93471.59;5046721;28;20205;-75
2023/01/17 06:55:47;;;;;;;2.40;1.50;;;;;;;1.13;100.00;93477.19;5055778;28;20213;-75
2023/01/17 06:58:14;;;;;;;2.80;1.53;;;;;;;1.14;100.00;93470.84;5049424;28;20194;-75
2023/01/17 07:00:41;;;;;;;5.73;5.20;;;;;;;1.16;100.00;93470.59;5048188;28;20211;-75
2023/01/17 07:03:17;;;;;;;2.93;2.40;;;;;;;1.20;100.00;93461.09;5045440;28;20264;-75
2023/01/17 07:05:46;;;;;;;3.73;2.43;;;;;;;1.20;100.00;93462.94;5044449;28;20204;-75
2023/01/17 07:08:13;;;;;;;4.27;2.33;;;;;;;1.23;100.00;93473.91;5047546;28;20209;-75
2023/01/17 07:10:40;;;;;;;1.60;1.50;;;;;;;1.20;100.00;93477.03;5047129;28;20232;-75
2023/01/17 07:13:07;;;;;;;1.87;1.50;;;;;;;1.24;100.00;93470.19;5048514;28;20285;-75
2023/01/17 07:15:34;;;;;;;4.03;1.70;;;;;;;1.27;100.00;93463.59;5040368;28;20217;-75
2023/01/17 07:18:01;;;;;;;3.50;2.27;;;;;;;1.27;100.00;93463.59;5040736;28;20207;-75
2023/01/17 07:20:28;;;;;;;2.70;2.00;;;;;;;1.31;100.00;93459.38;5046493;28;20310;-75
2023/01/17 07:22:57;;;;;;;2.50;1.93;;;;;;;1.35;100.00;93450.69;5038419;28;20345;-75
2023/01/17 07:25:24;;;;;;;6.07;3.87;;;;;;;1.31;100.00;93449.56;5043968;28;20291;-75
2023/01/17 07:27:56;;;;;;;4.93;3.80;;;;;;;1.27;100.00;93443.16;5042617;28;20221;-75
2023/01/17 07:30:23;;;;;;;3.53;3.03;;;;;;;1.20;100.00;93441.69;5034176;28;20218;-75
2023/01/17 07:32:54;;;;;;;3.13;2.57;;;;;;;1.16;100.00;93425.44;5034446;28;20198;-75
2023/01/17 07:35:21;;;;;;;3.00;2.60;;;;;;;1.24;100.00;93417.03;5040265;28;20205;-75
2023/01/17 07:37:49;;;;;;;3.97;2.20;;;;;;;1.30;100.00;93400.13;5032040;28;20206;-75
2023/01/17 07:40:18;;;;;;;4.60;3.03;;;;;;;1.36;100.00;93396.47;5040451;28;20206;-75
2023/01/17 07:42:46;;;;;;;5.23;3.50;;;;;;;1.42;100.00;93408.78;5045037;28;20226;-75
2023/01/17 07:45:14;;;;;;;3.83;2.57;;;;;;;1.39;100.00;93406.63;5038267;28;20213;-75
2023/01/17 07:47:41;;;;;;;7.47;3.30;;;;;;;1.27;100.00;93405.94;5041510;28;20202;-75
2023/01/17 07:50:10;;;;;;;7.33;3.70;;;;;;;1.24;100.00;93379.84;5042653;28;20218;-75
2023/01/17 07:52:37;;;;;;;8.83;3.47;;;;;;;1.26;100.00;93367.13;5041292;28;20203;-75
2023/01/17 07:55:06;;;;;;;8.23;3.60;;;;;;;1.31;100.00;93364.50;5034308;28;20219;-75
2023/01/17 07:57:35;;;;;;;5.53;3.30;;;;;;;1.38;100.00;93364.34;5033386;28;20209;-75
2023/01/17 08:00:02;;;;;;;10.87;5.03;;;;;;;1.44;100.00;93342.91;5031173;28;20217;-75
2023/01/17 08:02:39;;;;;;;12.30;6.77;;;;;;;1.48;100.00;93333.38;5036180;28;20238;-75
2023/01/17 08:05:06;;;;;;;9.17;4.43;;;;;;;1.51;100.00;93329.41;5037342;28;20261;-76
2023/01/17 08:07:33;;;;;;;5.87;3.77;;;;;;;1.53;100.00;93322.00;5046835;28;20202;-77
2023/01/17 08:10:00;;;;;;;8.83;4.40;;;;;;;1.56;100.00;93318.03;5035941;28;20199;-75
2023/01/17 08:12:28;;;;;;;14.00;5.80;;;;;;;1.53;100.00;93306.06;5053838;28;20214;-74
2023/01/17 08:14:56;;;;;;;10.43;5.80;;;;;;;1.59;100.00;93293.59;5040685;28;20229;-74
2023/01/17 08:17:23;;;;;;;12.70;5.87;;;;;;;1.60;100.00;93287.25;5041269;28;20206;-74
2023/01/17 08:19:51;;;;;;;8.73;4.77;;;;;;;1.64;100.00;93289.13;5043107;28;20209;-74
2023/01/17 08:22:18;;;;;;;8.90;3.47;;;;;;;1.55;100.00;93282.66;5036087;28;20249;-74
2023/01/17 08:24:46;;;;;;;4.80;2.97;;;;;;;1.59;100.00;93272.34;4999930;28;1178890;-74
2023/01/17 08:27:13;;;;;;;4.63;2.77;;;;;;;1.65;100.00;93247.41;5040790;28;20227;-74
2023/01/17 08:29:45;;;;;;;4.77;2.73;;;;;;;1.67;100.00;93242.63;5038342;28;20295;-74
2023/01/17 08:32:14;;;;;;;6.07;2.80;;;;;;;1.67;100.00;93224.03;5036644;28;20214;-75
2023/01/17 08:34:41;;;;;;;5.10;2.40;;;;;;;1.69;100.00;93221.91;5037730;28;20202;-74
2023/01/17 08:37:08;;;;;;;6.37;2.90;;;;;;;1.69;100.00;93211.28;5036883;28;20214;-74
2023/01/17 08:39:35;;;;;;;7.23;3.40;;;;;;;1.75;100.00;93216.38;5038135;28;20205;-74
2023/01/17 08:42:02;;;;;;;4.73;2.70;;;;;;;1.79;100.00;93214.00;5039149;28;20218;-74
2023/01/17 08:44:29;;;;;;;6.20;3.00;;;;;;;1.85;100.00;93199.72;5043065;28;20218;-74
2023/01/17 08:46:56;;;;;;;6.13;3.17;;;;;;;1.92;100.00;93200.31;5030475;28;20207;-74
2023/01/17 08:49:25;;;;;;;6.90;3.10;;;;;;;2.02;100.00;93186.28;5036283;28;20204;-74
2023/01/17 08:51:52;;;;;;;4.60;2.80;;;;;;;2.16;100.00;93206.06;5043706;28;20212;-74
2023/01/17 08:54:21;;;;;;;2.40;1.57;;;;;;;2.54;100.00;93176.53;5046273;28;20261;-74
2023/01/17 08:56:48;;;;;;;1.70;1.00;;;;;;;3.00;87.67;93180.19;5046125;28;20209;-74
2023/01/17 08:59:15;;;;;;;0.90;0.90;;;;;;;3.72;77.25;93165.97;5047109;28;20229;-74
2023/01/17 09:01:44;;;;;;;2.13;0.80;;;;;;;4.11;73.30;93158.25;5045406;28;20207;-74
2023/01/17 09:04:11;;;;;;;0.83;0.57;;;;;;;4.65;67.29;93156.84;5045237;28;20232;-74
2023/01/17 09:06:41;;;;;;;0.60;0.60;;;;;;;5.00;63.21;93151.38;5045201;28;20219;-74
2023/01/17 09:09:10;;;;;;;0.53;0.53;;;;;;;5.11;61.29;93144.91;5039963;28;20198;-74
2023/01/17 09:11:37;;;;;;;0.60;0.60;;;;;;;5.33;59.91;93141.84;5044677;28;20240;-74
2023/01/17 09:14:06;;;;;;;2.03;0.80;;;;;;;5.44;58.50;93137.25;5038570;28;20209;-74
2023/01/17 09:16:34;;;;;;;0.60;0.60;;;;;;;5.59;57.05;93142.50;5048160;28;20202;-74
2023/01/17 09:19:01;;;;;;;0.50;0.50;;;;;;;5.56;57.12;93137.72;5044717;28;20210;-74
2023/01/17 09:21:28;;;;;;;0.70;0.70;;;;;;;5.72;55.94;93144.56;5042876;28;20199;-74
2023/01/17 09:23:57;;;;;;;0.73;0.70;;;;;;;5.75;56.09;93144.00;5045207;28;20234;-74
2023/01/17 09:26:26;;;;;;;0.70;0.70;;;;;;;5.77;55.25;93147.22;5047786;28;20225;-74
2023/01/17 09:28:53;;;;;;;0.70;0.70;;;;;;;5.95;53.67;93143.91;5034278;28;20214;-74
2023/01/17 09:31:21;;;;;;;0.70;0.70;;;;;;;5.94;52.95;93136.16;5043659;28;20206;-74
2023/01/17 09:33:48;;;;;;;0.70;0.70;;;;;;;6.08;52.88;93142.44;5045861;28;20203;-74
2023/01/17 09:36:16;;;;;;;0.73;0.70;;;;;;;6.02;52.83;93155.09;5043042;28;20202;-74
2023/01/17 09:38:43;;;;;;;0.70;0.70;;;;;;;5.99;52.59;93155.63;5041316;28;20506;-74
2023/01/17 09:41:26;;;;;;;0.60;0.60;;;;;;;6.13;52.19;93160.34;5048616;28;20210;-74
2023/01/17 09:43:59;;;;;;;2.17;0.90;;;;;;;6.16;51.69;93157.13;5036555;28;20210;-74
2023/01/17 09:46:31;;;;;;;4.83;1.20;;;;;;;6.23;50.70;93153.03;5039785;28;20214;-74
2023/01/17 09:49:06;;;;;;;5.10;1.23;;;;;;;6.29;49.98;93175.25;5031330;28;20242;-74
2023/01/17 09:51:33;;;;;;;0.70;0.70;;;;;;;6.34;50.47;93173.31;5044939;28;20230;-74
2023/01/17 09:54:01;;;;;;;2.10;1.03;;;;;;;6.31;54.26;93175.75;5045302;28;20200;-74
2023/01/17 09:56:35;;;;;;;3.47;1.60;;;;;;;6.00;67.60;93167.97;5037656;28;20225;-75
2023/01/17 09:59:27;;;;;;;2.17;1.30;;;;;;;5.30;66.08;93182.53;5032722;28;20280;-74
2023/01/17 10:02:02;;;;;;;2.13;1.50;;;;;;;5.04;86.31;93179.16;5042193;28;20202;-75
2023/01/17 10:04:47;;;;;;;2.40;1.30;;;;;;;4.48;92.58;93178.50;5038526;28;20315;-74
2023/01/17 10:07:28;;;;;;;4.77;1.50;;;;;;;4.24;95.86;93188.16;5042419;28;20277;-74
2023/01/17 10:10:13;;;;;;;0.70;0.70;;;;;;;4.83;65.75;93175.75;5047215;28;20242;-74
2023/01/17 10:12:49;;;;;;;6.10;1.47;;;;;;;5.28;75.44;93171.28;5041602;28;20208;-74
2023/01/17 10:15:32;;;;;;;1.80;1.30;;;;;;;5.04;88.16;93175.69;5041340;28;20221;-74
2023/01/17 10:18:09;;;;;;;2.50;1.43;;;;;;;4.73;91.52;93186.47;5044917;28;20211;-74
2023/01/17 10:20:46;;;;;;;1.30;1.20;;;;;;;4.60;94.31;93183.53;5038599;28;20229;-75
2023/01/17 10:23:48;;;;;;;3.17;1.10;;;;;;;4.45;95.27;93168.34;5045533;28;20289;-75
2023/01/17 10:26:18;;;;;;;6.87;1.47;;;;;;;4.48;90.07;93163.28;5038248;28;20202;-74
2023/01/17 10:28:50;;;;;;;1.80;1.20;;;;;;;4.64;84.74;93156.03;5035954;28;20194;-75
2023/01/17 10:31:22;;;;;;;2.23;1.10;;;;;;;5.15;68.75;93150.50;5033410;28;20502;-75
2023/01/17 10:33:51;;;;;;;1.30;0.80;;;;;;;5.46;67.88;93138.56;5033403;28;20259;-74
2023/01/17 10:36:21;;;;;;;0.90;0.90;;;;;;;5.86;59.39;93144.75;5034533;28;20195;-75
2023/01/17 10:38:51;;;;;;;0.80;0.80;;;;;;;6.18;57.30;93139.69;5043315;28;20201;-75
2023/01/17 10:41:25;;;;;;;3.83;0.90;;;;;;;6.34;56.36;93132.31;5034380;28;20202;-75
2023/01/17 10:44:01;;;;;;;1.40;0.80;;;;;;;6.42;56.34;93118.31;5044007;28;20221;-75
2023/01/17 10:46:34;;;;;;;1.20;0.80;;;;;;;6.52;54.76;93099.47;5040359;28;20217;-74
2023/01/17 10:49:02;;;;;;;2.90;1.00;;;;;;;6.64;53.25;93099.84;5043962;28;20210;-75
2023/01/17 10:51:50;;;;;;;3.43;1.00;;;;;;;6.82;53.83;93092.94;5039348;28;20202;-75
2023/01/17 10:54:38;;;;;;;1.17;0.90;;;;;;;7.04;52.74;93079.03;5036670;28;20207;-74
2023/01/17 10:57:13;;;;;;;0.73;0.73;;;;;;;7.37;52.18;93074.56;5031158;28;20276;-75
2023/01/17 10:59:42;;;;;;;0.97;0.70;;;;;;;7.65;52.75;93078.19;5036993;28;20214;-75
2023/01/17 11:02:20;;;;;;;1.60;1.20;;;;;;;7.70;49.86;93075.41;5035430;28;20209;-75
2023/01/17 11:04:50;;;;;;;0.87;0.87;;;;;;;7.70;48.74;93075.41;5031386;28;20210;-75
2023/01/17 11:07:20;;;;;;;0.90;0.90;;;;;;;7.56;49.75;93060.06;5041613;28;20206;-75
2023/01/17 11:09:49;;;;;;;0.87;0.73;;;;;;;7.47;47.78;93061.78;5040695;28;20222;-75
2023/01/17 11:12:20;;;;;;;0.80;0.80;;;;;;;7.49;47.19;93054.22;5039449;28;20217;-75
2023/01/17 11:15:21;;;;;;;0.70;0.70;;;;;;;7.47;47.93;93048.38;5033886;28;20206;-74
2023/01/17 11:17:51;;;;;;;1.17;0.83;;;;;;;7.41;46.70;93044.16;5036253;28;20202;-74
2023/01/17 11:20:23;;;;;;;0.70;0.70;;;;;;;7.49;45.48;93032.75;5047342;28;20201;-75
2023/01/17 11:23:06;;;;;;;0.80;0.80;;;;;;;7.55;45.61;93036.97;5044599;28;20203;-75
2023/01/17 11:25:34;;;;;;;0.93;0.80;;;;;;;7.38;48.37;93025.16;5046038;28;20234;-73
2023/01/17 11:28:07;;;;;;;0.70;0.70;;;;;;;7.45;46.06;93022.91;5046150;28;20264;-74
2023/01/17 11:30:35;;;;;;;0.93;0.90;;;;;;;7.49;46.14;92992.50;5057027;28;20210;-75
2023/01/17 11:33:07;;;;;;;1.90;0.80;;;;;;;7.49;46.97;92999.75;5046519;28;20199;-74
2023/01/17 11:35:37;;;;;;;1.37;0.80;;;;;;;7.56;47.17;92992.94;5041175;28;20214;-75
2023/01/17 11:38:15;;;;;;;0.70;0.70;;;;;;;7.50;46.27;92974.50;5046885;28;20290;-74
2023/01/17 11:40:43;;;;;;;0.70;0.70;;;;;;;7.62;45.67;92966.81;5039905;28;20222;-74
2023/01/17 11:43:25;;;;;;;1.50;0.70;;;;;;;7.64;47.44;92951.19;5040832;28;20192;-74
2023/01/17 11:46:06;;;;;;;0.80;0.80;;;;;;;7.75;44.62;92955.28;5045095;28;20207;-74
2023/01/17 11:48:36;;;;;;;0.77;0.77;;;;;;;7.79;45.59;92928.66;5044271;28;20206;-75
2023/01/17 11:51:07;;;;;;;0.83;0.80;;;;;;;7.81;44.21;92926.47;5046412;28;20206;-75
2023/01/17 11:53:38;;;;;;;0.80;0.80;;;;;;;7.82;44.85;92922.69;5039145;28;20206;-74
2023/01/17 11:56:08;;;;;;;0.90;0.90;;;;;;;7.85;42.72;92914.03;5032722;28;20206;-74
2023/01/17 11:58:38;;;;;;;0.80;0.80;;;;;;;7.89;43.65;92909.69;5037299;28;20195;-75
2023/01/17 12:01:32;;;;;;;0.80;0.80;;;;;;;7.80;44.57;92898.03;5039394;28;20273;-74
2023/01/17 12:04:23;;;;;;;0.77;0.77;;;;;;;7.75;43.07;92906.94;5041524;28;20214;-75
2023/01/17 12:07:02;;;;;;;0.60;0.60;;;;;;;7.68;46.38;92895.00;5041807;28;20300;-74
2023/01/17 12:09:40;;;;;;;0.80;0.80;;;;;;;7.54;46.37;92885.06;5038444;28;20210;-74
2023/01/17 12:15:23;;;;;;;0.90;0.80;;;;;;;7.76;41.75;92835.25;4963737;28;20205;-74
2023/01/17 12:18:08;;;;;;;0.80;0.80;;;;;;;7.87;42.23;92844.72;5041099;28;20203;-75
2023/01/17 12:20:45;;;;;;;0.60;0.60;;;;;;;7.83;41.39;92855.25;5039108;28;20207;-75
2023/01/17 12:23:39;;;;;;;0.70;0.70;;;;;;;7.86;41.13;92832.38;5043914;28;20230;-74
2023/01/17 12:26:19;;;;;;;0.80;0.80;;;;;;;7.95;40.53;92825.22;5063532;28;20257;-74
2023/01/17 12:29:03;;;;;;;0.70;0.70;;;;;;;8.02;41.07;92841.72;5043054;28;20202;-74
2023/01/17 12:31:34;;;;;;;2.30;0.80;;;;;;;8.00;40.88;92833.16;5037799;28;20307;-74
2023/01/17 12:34:14;;;;;;;0.80;0.80;;;;;;;8.10;41.62;92824.91;5039411;28;20220;-74
2023/01/17 12:36:49;;;;;;;0.50;0.50;;;;;;;8.07;41.34;92819.34;5043773;28;20221;-74
2023/01/17 12:39:18;;;;;;;0.60;0.60;;;;;;;8.12;40.51;92828.09;5032734;28;20313;-74
2023/01/17 12:41:56;;;;;;;0.80;0.70;;;;;;;8.18;40.34;92813.44;5046866;28;20214;-75
2023/01/17 12:44:39;;;;;;;0.97;0.70;;;;;;;8.21;40.52;92806.69;5044768;28;20226;-75
2023/01/17 12:47:07;;;;;;;0.60;0.60;;;;;;;8.27;39.04;92806.25;5047245;28;20202;-74
2023/01/17 12:49:42;;;;;;;0.70;0.70;;;;;;;8.34;38.91;92809.34;5042313;28;20199;-75
2023/01/17 12:52:18;;;;;;;1.47;0.83;;;;;;;8.35;38.65;92813.63;5044733;28;20257;-75
2023/01/17 12:54:50;;;;;;;0.77;0.77;;;;;;;8.37;38.91;92809.84;5045168;28;20252;-74
2023/01/17 12:57:21;;;;;;;1.17;0.80;;;;;;;8.45;37.02;92796.50;5043540;28;20198;-74
2023/01/17 12:59:58;;;;;;;0.70;0.70;;;;;;;8.51;37.64;92818.66;5046133;28;20206;-75
2023/01/17 13:02:32;;;;;;;0.70;0.70;;;;;;;8.51;38.34;92799.84;5042970;28;20263;-74
2023/01/17 13:05:08;;;;;;;0.80;0.80;;;;;;;8.52;37.88;92817.56;5046034;28;20240;-75
2023/01/17 13:07:44;;;;;;;2.60;0.80;;;;;;;8.53;36.84;92797.66;5036246;28;20210;-74
2023/01/17 13:10:26;;;;;;;1.13;0.67;;;;;;;8.50;37.88;92815.22;5045075;28;20225;-74
2023/01/17 13:12:56;;;;;;;0.60;0.60;;;;;;;8.43;37.72;92827.44;5029243;28;20211;-74
2023/01/17 13:15:28;;;;;;;0.70;0.70;;;;;;;8.42;37.95;92815.91;5045716;28;20198;-74
2023/01/17 13:18:03;;;;;;;1.93;1.10;;;;;;;8.47;37.97;92826.56;5045897;28;20203;-74
2023/01/17 13:20:47;;;;;;;0.60;0.60;;;;;;;8.49;37.03;92839.72;5038035;28;20204;-74
2023/01/17 13:23:27;;;;;;;0.60;0.60;;;;;;;8.52;37.14;92841.78;5042505;28;20202;-75